Terminal Aerodrome Forecast
Issued by NWS Grand Forks, ND

Home | Current Version | Previous Version | Text Only | Print | Product List | Glossary On
Versions: 1 2 3 4 5 6 7 8 9 10 11 12
000
FTUS43 KFGF 121100
TAFFAR
TAF
KFAR 121140Z 1212/1312 30005KT P6SM SCT100 BKN250
     FM121600 27011G20KT P6SM BKN250
     FM130300 33013G20KT P6SM BKN080
     FM130600 32010KT P6SM SCT080=

USA.gov is the U.S. government's official web portal to all federal, state and local government web resources and services.